createdAt,value
2023-03-20T00:01:14.285Z,95.13
2023-03-20T00:03:42.958Z,95.32
2023-03-20T00:06:18.863Z,94.90
2023-03-20T00:08:48.997Z,95.38
2023-03-20T00:11:33.559Z,95.06
2023-03-20T00:14:04.205Z,94.73
2023-03-20T00:16:34.332Z,94.99
2023-03-20T00:19:03.349Z,95.03
2023-03-20T00:21:33.218Z,95.08
2023-03-20T00:24:02.060Z,95.11
2023-03-20T00:26:34.912Z,95.29
2023-03-20T00:29:05.127Z,95.26
2023-03-20T00:31:36.084Z,94.79
2023-03-20T00:34:06.447Z,94.61
2023-03-20T00:36:36.339Z,94.73
2023-03-20T00:39:04.930Z,94.75
2023-03-20T00:41:38.352Z,94.88
2023-03-20T00:44:19.821Z,94.96
2023-03-20T00:46:50.740Z,94.59
2023-03-20T00:49:19.905Z,94.43
2023-03-20T00:51:49.270Z,94.52
2023-03-20T00:54:19.074Z,94.55
2023-03-20T00:56:52.598Z,94.34
2023-03-20T00:59:25.730Z,94.37
2023-03-20T01:01:54.277Z,94.19
2023-03-20T01:04:23.880Z,93.88
2023-03-20T01:06:53.983Z,94.23
2023-03-20T01:09:22.459Z,94.11
2023-03-20T01:11:52.367Z,94.05
2023-03-20T01:14:21.913Z,93.67
2023-03-20T01:16:50.028Z,93.53
2023-03-20T01:19:18.402Z,93.84
2023-03-20T01:21:47.643Z,93.97
2023-03-20T01:24:17.258Z,93.88
2023-03-20T01:26:46.601Z,93.94
2023-03-20T01:29:19.915Z,93.75
2023-03-20T01:31:48.468Z,93.68
2023-03-20T01:34:17.488Z,93.44
2023-03-20T01:36:49.755Z,93.10
2023-03-20T01:39:21.794Z,93.21
2023-03-20T01:41:52.160Z,93.67
2023-03-20T01:44:22.522Z,93.39
2023-03-20T01:46:55.499Z,93.57
2023-03-20T01:50:19.224Z,93.88
2023-03-20T01:52:51.475Z,93.96
2023-03-20T01:55:22.501Z,93.94
2023-03-20T01:57:59.792Z,93.77
2023-03-20T02:00:28.016Z,93.86
2023-03-20T02:02:57.242Z,94.33
2023-03-20T02:05:46.226Z,94.65
2023-03-20T02:08:20.609Z,94.82
2023-03-20T02:10:50.628Z,94.39
2023-03-20T02:13:27.707Z,94.71
2023-03-20T02:16:07.513Z,94.08
2023-03-20T02:18:58.394Z,93.70
2023-03-20T02:21:59.931Z,93.54
2023-03-20T02:25:02.358Z,92.89
2023-03-20T02:27:45.879Z,91.99
2023-03-20T02:30:56.616Z,91.39
2023-03-20T02:33:51.019Z,92.49
2023-03-20T02:36:59.049Z,93.25
2023-03-20T02:39:47.486Z,93.78
2023-03-20T02:42:25.526Z,93.92
2023-03-20T02:45:04.820Z,93.94
2023-03-20T02:47:42.396Z,93.63
2023-03-20T02:50:27.138Z,93.78
2023-03-20T02:53:08.719Z,93.66
2023-03-20T02:55:42.687Z,93.65
2023-03-20T02:58:15.778Z,93.93
2023-03-20T03:00:52.027Z,94.06
2023-03-20T03:03:25.406Z,93.88
2023-03-20T03:05:59.759Z,93.64
2023-03-20T03:08:33.867Z,93.42
2023-03-20T03:11:07.510Z,93.63
2023-03-20T03:13:40.305Z,93.66
2023-03-20T03:16:12.840Z,93.99
2023-03-20T03:18:43.472Z,94.18
2023-03-20T03:21:14.653Z,94.29
2023-03-20T03:23:47.148Z,94.62
2023-03-20T03:26:22.467Z,94.51
2023-03-20T03:28:55.802Z,94.62
2023-03-20T03:31:24.858Z,95.01
2023-03-20T03:33:56.193Z,94.58
2023-03-20T03:36:38.689Z,94.92
2023-03-20T03:39:19.126Z,94.95
2023-03-20T03:41:53.506Z,95.00
2023-03-20T03:44:27.863Z,95.19
2023-03-20T03:47:00.189Z,95.47
2023-03-20T03:49:34.079Z,95.41
2023-03-20T03:52:06.431Z,95.53
2023-03-20T03:54:40.704Z,95.87
2023-03-20T03:57:34.272Z,95.87
2023-03-20T04:00:07.042Z,95.85
2023-03-20T04:02:48.197Z,95.76
2023-03-20T04:05:19.528Z,95.75
2023-03-20T04:07:48.209Z,95.36
2023-03-20T04:10:18.507Z,95.60
2023-03-20T04:12:48.521Z,95.46
2023-03-20T04:15:17.355Z,95.05
2023-03-20T04:17:45.720Z,95.33
2023-03-20T04:20:16.243Z,95.14
2023-03-20T04:22:45.157Z,95.23
2023-03-20T04:25:18.976Z,94.96
2023-03-20T04:27:48.738Z,94.70
2023-03-20T04:30:25.076Z,94.70
2023-03-20T04:33:12.514Z,95.25
2023-03-20T04:36:13.514Z,94.92
2023-03-20T04:38:42.774Z,95.09
2023-03-20T04:41:11.238Z,94.96
2023-03-20T04:43:41.786Z,94.99
2023-03-20T04:46:09.891Z,95.15
2023-03-20T04:48:39.167Z,94.78
2023-03-20T04:51:07.867Z,94.77
2023-03-20T04:53:46.089Z,94.38
2023-03-20T04:56:14.363Z,94.62
2023-03-20T04:58:44.181Z,94.66
2023-03-20T05:01:12.978Z,94.53
2023-03-20T05:03:41.580Z,94.72
2023-03-20T05:06:10.728Z,95.07
2023-03-20T05:08:44.628Z,94.96
2023-03-20T05:11:13.050Z,94.56
2023-03-20T05:14:01.139Z,94.92
2023-03-20T05:16:50.805Z,94.65
2023-03-20T05:19:26.379Z,93.98
2023-03-20T05:22:12.820Z,94.27
2023-03-20T05:25:01.150Z,94.22
2023-03-20T05:27:48.387Z,93.96
2023-03-20T05:30:38.170Z,94.17
2023-03-20T05:33:32.290Z,93.46
2023-03-20T05:36:19.624Z,92.77
2023-03-20T05:39:16.382Z,92.57
2023-03-20T05:42:03.308Z,92.75
2023-03-20T05:44:45.224Z,93.04
2023-03-20T05:47:26.208Z,93.30
2023-03-20T05:50:05.540Z,93.54
2023-03-20T05:52:51.200Z,93.66
2023-03-20T05:55:45.586Z,93.87
2023-03-20T05:58:35.182Z,93.31
2023-03-20T06:01:22.401Z,92.72
2023-03-20T06:03:54.860Z,92.30
2023-03-20T06:06:42.963Z,92.08
2023-03-20T06:09:11.474Z,92.48
2023-03-20T06:11:39.799Z,92.38
2023-03-20T06:14:08.801Z,92.43
2023-03-20T06:16:40.551Z,92.02
2023-03-20T06:19:11.170Z,91.30
2023-03-20T06:21:39.284Z,92.03
2023-03-20T06:24:11.364Z,90.97
2023-03-20T06:26:39.614Z,91.00
2023-03-20T06:29:11.726Z,91.17
2023-03-20T06:31:40.008Z,90.12
2023-03-20T06:34:13.900Z,89.50
2023-03-20T06:36:47.069Z,89.10
2023-03-20T06:39:20.382Z,88.49
2023-03-20T06:41:49.420Z,89.02
2023-03-20T06:44:17.615Z,88.35
2023-03-20T06:47:11.790Z,87.95
2023-03-20T06:49:44.531Z,88.38
2023-03-20T06:52:17.585Z,88.14
2023-03-20T06:54:52.457Z,87.79
2023-03-20T06:57:20.961Z,87.26
2023-03-20T06:59:49.078Z,87.25
2023-03-20T07:02:18.100Z,87.12
2023-03-20T07:04:48.342Z,86.93
2023-03-20T07:07:17.481Z,87.43
2023-03-20T07:09:46.768Z,87.07
2023-03-20T07:12:20.143Z,86.10
2023-03-20T07:14:48.593Z,86.67
2023-03-20T07:17:20.472Z,86.15
2023-03-20T07:19:51.916Z,85.68
2023-03-20T07:22:23.691Z,85.22
2023-03-20T07:24:53.645Z,85.47
2023-03-20T07:27:25.262Z,85.51
2023-03-20T07:29:56.164Z,85.42
2023-03-20T07:32:25.582Z,84.81
2023-03-20T07:34:55.576Z,84.39
2023-03-20T07:37:23.676Z,85.27
2023-03-20T07:40:04.954Z,85.33
2023-03-20T07:42:44.354Z,84.63
2023-03-20T07:45:17.062Z,84.34
2023-03-20T07:47:48.314Z,83.72
2023-03-20T07:50:18.875Z,84.19
2023-03-20T07:52:49.135Z,83.45
2023-03-20T07:55:18.750Z,82.73
2023-03-20T07:57:49.326Z,82.26
2023-03-20T08:00:18.892Z,81.77
2023-03-20T08:02:47.056Z,81.51
2023-03-20T08:06:07.630Z,81.79
2023-03-20T08:08:38.262Z,79.83
2023-03-20T08:11:07.226Z,80.53
2023-03-20T08:13:35.608Z,80.32
2023-03-20T08:16:03.760Z,80.57
2023-03-20T08:18:31.845Z,79.91
2023-03-20T08:21:00.299Z,79.18
2023-03-20T08:23:28.703Z,78.83
2023-03-20T08:25:58.537Z,78.76
2023-03-20T08:28:40.402Z,78.06
2023-03-20T08:31:12.638Z,74.53
2023-03-20T08:33:41.207Z,75.65
2023-03-20T08:36:10.004Z,74.93
2023-03-20T08:38:38.608Z,71.29
2023-03-20T08:41:09.489Z,72.01
2023-03-20T08:43:37.680Z,64.43
2023-03-20T08:46:08.208Z,60.63
2023-03-20T08:48:37.451Z,59.49
2023-03-20T08:51:06.405Z,63.14
2023-03-20T08:53:34.532Z,70.51
2023-03-20T08:56:03.101Z,71.68
2023-03-20T08:58:33.063Z,70.46
2023-03-20T09:01:05.858Z,67.51
2023-03-20T09:03:34.020Z,69.13
2023-03-20T09:06:02.111Z,71.07
2023-03-20T09:08:30.352Z,73.57
2023-03-20T09:10:58.991Z,76.14
2023-03-20T09:13:28.101Z,77.34
2023-03-20T09:15:58.343Z,77.55
2023-03-20T09:18:27.030Z,77.19
2023-03-20T09:20:56.654Z,77.40
2023-03-20T09:23:25.420Z,77.89
2023-03-20T09:25:53.524Z,77.07
2023-03-20T09:28:21.676Z,77.66
2023-03-20T09:30:49.983Z,78.22
2023-03-20T09:33:19.979Z,77.31
2023-03-20T09:35:48.431Z,77.53
2023-03-20T09:38:16.630Z,77.84
2023-03-20T09:41:04.083Z,76.49
2023-03-20T09:43:48.309Z,76.24
2023-03-20T09:46:30.811Z,74.90
2023-03-20T09:49:08.952Z,73.54
2023-03-20T09:51:43.064Z,71.13
2023-03-20T09:54:21.717Z,66.34
2023-03-20T09:56:51.170Z,61.87
2023-03-20T09:59:21.773Z,62.80
2023-03-20T10:01:53.267Z,60.60
2023-03-20T10:04:26.313Z,58.31
2023-03-20T10:06:54.814Z,58.65
2023-03-20T10:09:25.240Z,61.56
2023-03-20T10:12:10.173Z,66.10
2023-03-20T10:14:50.988Z,65.66
2023-03-20T10:17:33.134Z,64.52
2023-03-20T10:20:13.755Z,62.74
2023-03-20T10:22:46.320Z,64.73
2023-03-20T10:25:24.972Z,67.62
2023-03-20T10:27:59.403Z,69.54
2023-03-20T10:30:47.182Z,67.10
2023-03-20T10:33:27.730Z,67.00
2023-03-20T10:36:11.879Z,67.55
2023-03-20T10:38:47.081Z,67.95
2023-03-20T10:41:19.158Z,67.80
2023-03-20T10:43:50.933Z,68.13
2023-03-20T10:46:23.450Z,67.44
2023-03-20T10:48:58.236Z,68.39
2023-03-20T10:51:39.428Z,67.78
2023-03-20T10:54:14.201Z,70.03
2023-03-20T10:56:48.012Z,69.66
2023-03-20T10:59:23.483Z,70.24
2023-03-20T11:01:52.011Z,70.32
2023-03-20T11:04:20.216Z,71.46
2023-03-20T11:06:59.920Z,70.37
2023-03-20T11:09:30.522Z,72.39
2023-03-20T11:11:59.753Z,70.44
2023-03-20T11:14:34.513Z,72.36
2023-03-20T11:17:04.639Z,71.69
2023-03-20T11:19:35.080Z,71.14
2023-03-20T11:22:10.174Z,72.40
2023-03-20T11:24:42.865Z,73.49
2023-03-20T11:27:14.238Z,71.24
2023-03-20T11:29:45.794Z,70.60
2023-03-20T11:32:27.979Z,72.19
2023-03-20T11:34:57.567Z,68.95
2023-03-20T11:37:29.319Z,70.80
2023-03-20T11:40:08.554Z,67.67
2023-03-20T11:42:37.620Z,70.25
2023-03-20T11:45:16.057Z,68.68
2023-03-20T11:47:45.433Z,67.54
2023-03-20T11:50:28.858Z,68.08
2023-03-20T11:52:59.332Z,68.01
2023-03-20T11:55:30.992Z,69.29
2023-03-20T11:58:01.353Z,68.64
2023-03-20T12:00:36.653Z,68.19
2023-03-20T12:03:05.382Z,67.15
2023-03-20T12:05:35.621Z,66.21
2023-03-20T12:08:14.237Z,65.90
2023-03-20T12:10:44.107Z,66.65
2023-03-20T12:13:18.840Z,66.29
2023-03-20T12:15:52.452Z,66.06
2023-03-20T12:18:28.067Z,66.63
2023-03-20T12:21:05.683Z,66.23
2023-03-20T12:23:38.592Z,66.56
2023-03-20T12:26:12.790Z,67.18
2023-03-20T12:28:48.771Z,66.28
2023-03-20T12:31:24.883Z,67.15
2023-03-20T12:33:59.536Z,67.83
2023-03-20T12:36:32.928Z,68.60
2023-03-20T12:39:04.500Z,69.59
2023-03-20T12:41:41.691Z,69.13
2023-03-20T12:44:22.894Z,69.71
2023-03-20T12:47:00.113Z,68.36
2023-03-20T12:49:40.194Z,70.06
2023-03-20T12:52:16.468Z,68.65
2023-03-20T12:55:10.534Z,69.09
2023-03-20T12:57:47.971Z,70.69
2023-03-20T13:00:25.076Z,72.14
2023-03-20T13:03:04.583Z,70.25
2023-03-20T13:05:42.772Z,70.21
2023-03-20T13:08:24.518Z,69.56
2023-03-20T13:11:00.612Z,70.97
2023-03-20T13:13:35.022Z,69.97
2023-03-20T13:16:17.946Z,71.21
2023-03-20T13:18:59.185Z,71.74
2023-03-20T13:21:37.486Z,73.13
2023-03-20T13:24:24.213Z,71.40
2023-03-20T13:27:03.508Z,71.87
2023-03-20T13:29:43.111Z,72.61
2023-03-20T13:32:21.363Z,73.57
2023-03-20T13:35:05.130Z,71.63
2023-03-20T13:37:36.903Z,72.66
2023-03-20T13:40:12.744Z,73.85
2023-03-20T13:42:49.318Z,71.94
2023-03-20T13:45:31.691Z,71.96
2023-03-20T13:48:04.818Z,74.06
2023-03-20T13:50:43.604Z,73.57
2023-03-20T13:53:23.462Z,72.57
2023-03-20T13:56:01.068Z,71.78
2023-03-20T13:58:47.755Z,73.39
2023-03-20T14:01:23.570Z,73.13
2023-03-20T14:03:53.145Z,73.08
2023-03-20T14:06:46.592Z,72.60
2023-03-20T14:09:33.134Z,73.44
2023-03-20T14:12:05.249Z,73.37
2023-03-20T14:14:43.094Z,72.77
2023-03-20T14:17:17.791Z,73.48
2023-03-20T14:19:47.057Z,74.00
2023-03-20T14:22:20.870Z,74.30
2023-03-20T14:24:56.414Z,74.25
2023-03-20T14:27:45.158Z,74.04
2023-03-20T14:30:41.982Z,74.51
2023-03-20T14:33:26.889Z,73.47
2023-03-20T14:36:18.646Z,73.45
2023-03-20T14:38:57.325Z,73.20
2023-03-20T14:41:31.794Z,72.53
2023-03-20T14:44:12.956Z,72.52
2023-03-20T14:46:52.851Z,72.25
2023-03-20T14:49:37.532Z,73.45
2023-03-20T14:52:24.336Z,72.18
2023-03-20T14:54:56.836Z,71.72
2023-03-20T14:57:37.567Z,73.82
2023-03-20T15:00:23.182Z,72.77
2023-03-20T15:02:54.955Z,71.74
2023-03-20T15:05:29.254Z,72.39
2023-03-20T15:07:59.255Z,72.27
2023-03-20T15:10:27.397Z,74.04
2023-03-20T15:12:58.208Z,73.09
2023-03-20T15:15:30.667Z,74.12
2023-03-20T15:18:08.879Z,75.89
2023-03-20T15:20:37.674Z,76.21
2023-03-20T15:23:06.529Z,76.91
2023-03-20T15:25:39.337Z,75.62
2023-03-20T15:28:08.192Z,75.51
2023-03-20T15:30:39.823Z,75.97
2023-03-20T15:33:17.636Z,77.04
2023-03-20T15:35:45.937Z,78.15
2023-03-20T15:38:17.295Z,79.71
2023-03-20T15:40:50.958Z,80.87
2023-03-20T15:43:22.544Z,81.81
2023-03-20T15:46:03.019Z,81.64
2023-03-20T15:48:40.046Z,79.79
2023-03-20T15:51:11.495Z,81.07
2023-03-20T15:53:44.677Z,79.92
2023-03-20T15:56:18.782Z,81.47
2023-03-20T15:58:50.132Z,82.12
2023-03-20T16:01:20.554Z,83.18
2023-03-20T16:03:52.178Z,84.53
2023-03-20T16:06:22.899Z,85.97
2023-03-20T16:08:59.140Z,87.71
2023-03-20T16:11:38.318Z,87.90
2023-03-20T16:14:07.901Z,89.05
2023-03-20T16:16:37.799Z,89.46
2023-03-20T16:19:09.351Z,89.85
2023-03-20T16:21:41.764Z,89.91
2023-03-20T16:24:16.995Z,90.40
2023-03-20T16:26:49.688Z,90.33
2023-03-20T16:29:19.513Z,90.52
2023-03-20T16:31:56.251Z,90.51
2023-03-20T16:34:32.094Z,90.02
2023-03-20T16:37:03.449Z,90.92
2023-03-20T16:39:32.503Z,88.63
2023-03-20T16:42:13.029Z,87.31
2023-03-20T16:44:43.358Z,88.31
2023-03-20T16:47:20.108Z,88.26
2023-03-20T16:50:12.812Z,88.08
2023-03-20T16:52:43.487Z,88.60
2023-03-20T16:55:17.075Z,88.93
2023-03-20T16:57:49.763Z,88.90
2023-03-20T17:00:24.881Z,89.20
2023-03-20T17:02:59.575Z,89.36
2023-03-20T17:05:43.926Z,89.57
2023-03-20T17:08:15.404Z,89.69
2023-03-20T17:10:51.363Z,89.47
2023-03-20T17:13:19.523Z,89.46
2023-03-20T17:15:47.740Z,89.28
2023-03-20T17:18:16.115Z,89.13
2023-03-20T17:20:45.957Z,89.46
2023-03-20T17:23:17.091Z,88.49
2023-03-20T17:25:45.592Z,87.71
2023-03-20T17:28:20.618Z,88.06
2023-03-20T17:30:50.388Z,88.51
2023-03-20T17:33:21.093Z,89.29
2023-03-20T17:35:52.933Z,89.54
2023-03-20T17:38:23.280Z,89.75
2023-03-20T17:40:53.746Z,89.93
2023-03-20T17:43:22.320Z,89.99
2023-03-20T17:45:50.897Z,90.12
2023-03-20T17:48:21.445Z,89.64
2023-03-20T17:50:52.521Z,90.32
2023-03-20T17:53:25.185Z,89.73
2023-03-20T17:55:54.398Z,90.34
2023-03-20T17:58:24.532Z,91.08
2023-03-20T18:00:54.629Z,91.37
2023-03-20T18:03:23.373Z,91.54
2023-03-20T18:05:54.409Z,92.10
2023-03-20T18:08:23.530Z,92.03
2023-03-20T18:10:53.959Z,92.84
2023-03-20T18:13:23.556Z,93.09
2023-03-20T18:15:54.491Z,93.44
2023-03-20T18:18:24.063Z,93.62
2023-03-20T18:20:55.098Z,93.97
2023-03-20T18:23:23.520Z,93.95
2023-03-20T18:25:51.851Z,94.28
2023-03-20T18:28:23.215Z,94.21
2023-03-20T18:30:52.795Z,94.97
2023-03-20T18:33:25.366Z,94.70
2023-03-20T18:35:55.478Z,94.61
2023-03-20T18:38:25.759Z,94.74
2023-03-20T18:40:54.266Z,94.38
2023-03-20T18:43:22.307Z,94.29
2023-03-20T18:45:50.365Z,94.45
2023-03-20T18:48:18.941Z,94.29
2023-03-20T18:50:51.095Z,94.79
2023-03-20T18:53:21.366Z,94.61
2023-03-20T18:55:49.416Z,94.47
2023-03-20T18:58:22.597Z,94.43
2023-03-20T19:00:53.987Z,94.50
2023-03-20T19:03:24.712Z,94.11
2023-03-20T19:05:53.797Z,93.87
2023-03-20T19:08:23.950Z,93.79
2023-03-20T19:10:53.159Z,93.71
2023-03-20T19:13:23.140Z,93.51
2023-03-20T19:15:51.320Z,93.63
2023-03-20T19:18:21.854Z,94.08
2023-03-20T19:20:52.061Z,93.72
2023-03-20T19:23:21.642Z,93.95
2023-03-20T19:25:55.005Z,93.70
2023-03-20T19:28:37.785Z,93.42
2023-03-20T19:31:09.682Z,93.50
2023-03-20T19:33:39.021Z,92.89
2023-03-20T19:36:19.960Z,93.18
2023-03-20T19:38:48.033Z,92.96
2023-03-20T19:41:19.883Z,93.10
2023-03-20T19:43:52.819Z,93.29
2023-03-20T19:46:42.092Z,93.13
2023-03-20T19:49:19.670Z,93.22
2023-03-20T19:51:48.916Z,93.69
2023-03-20T19:54:17.210Z,93.06
2023-03-20T19:56:46.929Z,93.45
2023-03-20T19:59:16.881Z,93.59
2023-03-20T20:01:46.620Z,93.68
2023-03-20T20:04:15.452Z,93.57
2023-03-20T20:06:47.232Z,92.87
2023-03-20T20:09:16.615Z,93.22
2023-03-20T20:11:46.455Z,93.28
2023-03-20T20:14:15.460Z,93.21
2023-03-20T20:16:45.975Z,92.85
2023-03-20T20:19:14.628Z,93.36
2023-03-20T20:24:31.623Z,92.60
2023-03-20T20:27:16.309Z,92.33
2023-03-20T20:29:49.394Z,92.62
2023-03-20T20:32:18.189Z,92.12
2023-03-20T20:38:25.067Z,92.42
2023-03-20T20:40:28.398Z,92.46
2023-03-20T20:43:01.781Z,92.57
2023-03-20T20:45:32.114Z,92.76
2023-03-20T20:48:01.321Z,92.51
2023-03-20T20:50:31.752Z,92.22
2023-03-20T20:53:00.666Z,92.11
2023-03-20T20:55:28.771Z,91.59
2023-03-20T20:57:58.581Z,91.85
2023-03-20T21:00:45.308Z,91.33
2023-03-20T21:03:16.774Z,91.75
2023-03-20T21:05:44.770Z,91.70
2023-03-20T21:08:14.249Z,91.91
2023-03-20T21:10:42.967Z,91.87
2023-03-20T21:13:12.572Z,92.35
2023-03-20T21:15:41.286Z,92.56
2023-03-20T21:18:10.248Z,92.36
2023-03-20T21:20:38.760Z,92.75
2023-03-20T21:23:07.022Z,92.74
2023-03-20T21:25:40.570Z,92.40
2023-03-20T21:28:11.260Z,92.22
2023-03-20T21:30:54.618Z,92.21
2023-03-20T21:33:31.516Z,92.25
2023-03-20T21:36:00.715Z,92.34
2023-03-20T21:39:01.919Z,92.59
2023-03-20T21:41:18.940Z,92.40
2023-03-20T21:43:47.775Z,92.19
2023-03-20T22:01:14.495Z,92.55
2023-03-20T22:03:33.866Z,92.27
2023-03-20T22:07:05.930Z,92.06
2023-03-20T22:09:45.682Z,92.49
2023-03-20T22:12:30.257Z,91.98
2023-03-20T22:17:53.122Z,91.47
2023-03-20T22:21:06.300Z,91.67
2023-03-20T22:34:54.332Z,91.58
2023-03-20T22:43:17.358Z,91.55
2023-03-20T22:45:52.622Z,91.55
2023-03-20T22:48:28.129Z,92.08
2023-03-20T22:50:56.294Z,91.82
2023-03-20T22:53:25.886Z,92.12
2023-03-20T22:55:54.801Z,91.67
2023-03-20T22:58:23.676Z,91.75
2023-03-20T23:00:55.165Z,91.70
2023-03-20T23:03:42.493Z,91.77
2023-03-20T23:06:30.054Z,91.09
2023-03-20T23:09:05.702Z,90.97
2023-03-20T23:11:41.794Z,91.46
2023-03-20T23:14:20.449Z,90.56
2023-03-20T23:16:51.086Z,90.25
2023-03-20T23:19:20.020Z,90.58
2023-03-20T23:21:48.188Z,90.79
2023-03-20T23:24:18.006Z,90.67
2023-03-20T23:26:46.135Z,90.71
2023-03-20T23:29:14.599Z,91.02
2023-03-20T23:31:42.695Z,90.83
2023-03-20T23:34:10.876Z,91.13
2023-03-20T23:36:38.986Z,91.14
2023-03-20T23:39:08.803Z,91.29
2023-03-20T23:44:28.162Z,90.56
2023-03-20T23:46:56.234Z,90.57
2023-03-20T23:49:25.084Z,90.41
2023-03-20T23:51:53.456Z,90.21
2023-03-20T23:54:22.225Z,89.89
2023-03-20T23:56:51.844Z,90.59
2023-03-20T23:59:21.933Z,90.49
